Time;durP1;ratioP1;P1;durP2;ratioP2;P2;SDS_P1;SDS_P2;PMS_P1;PMS_P2;Temp;Humidity;BMP_temperature;BMP_pressure;BME280_temperature;BME280_humidity;BME280_pressure;Samples;Min_cycle;Max_cycle;Signal;HPM_P1;HPM_P2
2023/03/17 00:01:53;;;;;;;6.72;1.70;;;;;;;;;;5057927;27;99453;-77
2023/03/17 00:04:24;;;;;;;5.97;1.48;;;;;;;;;;5060942;27;98597;-77
2023/03/17 00:06:51;;;;;;;3.70;1.40;;;;;;;;;;5055789;27;100607;-78
2023/03/17 00:09:18;;;;;;;4.72;1.63;;;;;;;;;;5077025;27;98213;-77
2023/03/17 00:11:45;;;;;;;3.88;1.45;;;;;;;;;;5079561;27;98413;-78
2023/03/17 00:14:13;;;;;;;4.10;1.70;;;;;;;;;;5071080;27;99546;-77
2023/03/17 00:16:43;;;;;;;3.83;1.63;;;;;;;;;;5060521;27;98500;-77
2023/03/17 00:19:15;;;;;;;4.20;1.67;;;;;;;;;;5060778;27;101215;-78
2023/03/17 00:21:42;;;;;;;4.03;1.50;;;;;;;;;;5053474;27;98762;-77
2023/03/17 00:24:12;;;;;;;4.13;1.80;;;;;;;;;;5079960;27;97538;-78
2023/03/17 00:26:41;;;;;;;5.75;1.50;;;;;;;;;;5063919;27;98687;-77
2023/03/17 00:29:07;;;;;;;4.20;1.50;;;;;;;;;;5079724;27;98595;-77
2023/03/17 00:31:34;;;;;;;3.53;1.73;;;;;;;;;;5078894;27;99535;-78
2023/03/17 00:34:01;;;;;;;4.68;1.67;;;;;;;;;;5043305;27;100720;-77
2023/03/17 00:36:29;;;;;;;4.28;1.63;;;;;;;;;;5060621;27;98511;-77
2023/03/17 00:38:56;;;;;;;2.85;1.50;;;;;;;;;;5059645;27;100604;-77
2023/03/17 00:41:23;;;;;;;3.60;1.50;;;;;;;;;;5079069;27;98640;-78
2023/03/17 00:43:50;;;;;;;4.78;1.70;;;;;;;;;;5060645;27;98344;-77
2023/03/17 00:46:34;;;;;;;3.85;1.77;;;;;;;;;;5060297;27;99871;-77
2023/03/17 00:49:22;;;;;;;3.60;1.70;;;;;;;;;;5063486;27;104976;-78
2023/03/17 00:51:49;;;;;;;5.82;1.60;;;;;;;;;;5079424;27;98510;-79
2023/03/17 00:54:16;;;;;;;4.28;1.55;;;;;;;;;;5060057;27;98784;-79
2023/03/17 00:56:43;;;;;;;4.82;1.50;;;;;;;;;;5043067;27;99534;-79
2023/03/17 00:59:13;;;;;;;3.15;1.50;;;;;;;;;;5078688;27;99683;-79
2023/03/17 01:01:39;;;;;;;3.10;1.55;;;;;;;;;;5078640;27;99148;-79
2023/03/17 01:04:08;;;;;;;3.15;1.30;;;;;;;;;;5078980;27;98663;-79
2023/03/17 01:06:34;;;;;;;3.47;1.65;;;;;;;;;;5059608;27;100471;-78
2023/03/17 01:09:02;;;;;;;3.13;1.60;;;;;;;;;;5063490;27;98758;-78
2023/03/17 01:11:29;;;;;;;4.45;1.60;;;;;;;;;;5060505;27;99228;-78
2023/03/17 01:13:56;;;;;;;5.00;1.77;;;;;;;;;;5068792;27;100797;-78
2023/03/17 01:16:22;;;;;;;5.90;1.80;;;;;;;;;;5080407;27;98397;-78
2023/03/17 01:18:49;;;;;;;3.90;1.85;;;;;;;;;;5073142;27;102248;-78
2023/03/17 01:21:15;;;;;;;3.60;1.50;;;;;;;;;;5055275;27;99561;-78
2023/03/17 01:23:42;;;;;;;3.30;1.48;;;;;;;;;;5078624;27;98308;-79
2023/03/17 01:26:09;;;;;;;4.32;1.98;;;;;;;;;;5059818;27;100260;-78
2023/03/17 01:28:36;;;;;;;3.00;1.65;;;;;;;;;;5058815;27;99584;-79
2023/03/17 01:31:03;;;;;;;10.05;1.90;;;;;;;;;;5081086;27;98299;-77
2023/03/17 01:33:30;;;;;;;6.70;1.85;;;;;;;;;;5042551;27;99762;-78
2023/03/17 01:35:57;;;;;;;13.25;2.10;;;;;;;;;;5059815;27;98706;-77
2023/03/17 01:38:24;;;;;;;5.05;1.73;;;;;;;;;;5060598;27;98720;-77
2023/03/17 01:40:52;;;;;;;5.57;2.00;;;;;;;;;;5073943;27;99570;-77
2023/03/17 01:43:24;;;;;;;4.57;1.67;;;;;;;;;;5051717;27;98296;-77
2023/03/17 01:46:10;;;;;;;4.90;1.70;;;;;;;;;;5077921;27;99318;-77
2023/03/17 01:48:40;;;;;;;5.28;1.73;;;;;;;;;;5058841;27;101380;-79
2023/03/17 01:51:08;;;;;;;4.18;1.80;;;;;;;;;;5045068;27;98970;-77
2023/03/17 01:53:36;;;;;;;4.10;1.50;;;;;;;;;;5081441;27;98757;-77
2023/03/17 01:56:02;;;;;;;4.28;1.85;;;;;;;;;;5076101;27;105395;-77
2023/03/17 01:58:30;;;;;;;3.90;1.70;;;;;;;;;;5059294;27;101115;-78
2023/03/17 02:00:57;;;;;;;3.97;1.75;;;;;;;;;;5057598;27;101752;-79
2023/03/17 02:03:24;;;;;;;4.03;1.80;;;;;;;;;;5060479;27;97584;-78
2023/03/17 02:05:52;;;;;;;3.97;1.60;;;;;;;;;;5059103;27;100389;-78
2023/03/17 02:08:18;;;;;;;4.18;1.40;;;;;;;;;;5077494;27;98434;-78
2023/03/17 02:10:46;;;;;;;4.20;1.70;;;;;;;;;;5057552;27;99315;-78
2023/03/17 02:13:13;;;;;;;3.08;1.50;;;;;;;;;;5044808;27;101865;-78
2023/03/17 02:15:41;;;;;;;4.18;1.92;;;;;;;;;;5068350;27;100168;-77
2023/03/17 02:18:08;;;;;;;4.15;1.60;;;;;;;;;;5059089;27;101119;-79
2023/03/17 02:20:35;;;;;;;;;;;;;;;;;;5076820;27;98757;-79
2023/03/17 02:23:02;;;;;;;5.32;2.00;;;;;;;;;;5059079;27;108204;-79
2023/03/17 02:25:32;;;;;;;3.83;1.70;;;;;;;;;;5058648;27;100687;-79
2023/03/17 02:28:00;;;;;;;3.85;1.70;;;;;;;;;;5059828;27;98005;-79
2023/03/17 02:30:27;;;;;;;5.80;1.60;;;;;;;;;;5058650;27;99171;-79
2023/03/17 02:32:54;;;;;;;4.07;1.60;;;;;;;;;;5057767;27;100871;-79
2023/03/17 02:35:21;;;;;;;6.28;1.98;;;;;;;;;;5039805;27;101320;-79
2023/03/17 02:37:47;;;;;;;5.03;1.95;;;;;;;;;;5045030;27;106094;-79
2023/03/17 02:40:14;;;;;;;3.55;1.77;;;;;;;;;;5076709;27;98776;-79
2023/03/17 02:42:40;;;;;;;3.65;1.73;;;;;;;;;;5076414;27;98265;-79
2023/03/17 02:45:10;;;;;;;4.03;1.40;;;;;;;;;;5058393;27;100811;-79
2023/03/17 02:47:37;;;;;;;3.75;1.60;;;;;;;;;;5058227;27;100067;-79
2023/03/17 02:50:04;;;;;;;4.88;1.60;;;;;;;;;;5076863;27;99461;-79
2023/03/17 02:52:31;;;;;;;3.78;1.70;;;;;;;;;;5059093;27;101701;-79
2023/03/17 02:54:57;;;;;;;5.10;1.90;;;;;;;;;;5057710;27;99187;-80
2023/03/17 02:57:23;;;;;;;3.97;1.67;;;;;;;;;;5077243;27;98312;-80
2023/03/17 02:59:50;;;;;;;7.93;1.65;;;;;;;;;;5060778;27;101331;-79
2023/03/17 03:02:16;;;;;;;4.40;1.67;;;;;;;;;;5077184;27;98141;-78
2023/03/17 03:04:43;;;;;;;5.78;1.85;;;;;;;;;;5075920;27;98720;-79
2023/03/17 03:07:10;;;;;;;4.10;1.70;;;;;;;;;;5075299;27;99120;-79
2023/03/17 03:09:36;;;;;;;3.75;1.50;;;;;;;;;;5076604;27;98074;-79
2023/03/17 03:12:08;;;;;;;5.78;1.70;;;;;;;;;;5076557;27;98659;-80
2023/03/17 03:14:35;;;;;;;3.25;1.70;;;;;;;;;;5047448;27;101824;-77
2023/03/17 03:17:03;;;;;;;10.85;1.73;;;;;;;;;;5041658;27;97647;-79
2023/03/17 03:19:29;;;;;;;3.75;1.70;;;;;;;;;;5079432;27;98031;-79
2023/03/17 03:21:56;;;;;;;3.25;1.60;;;;;;;;;;5076942;27;98977;-78
2023/03/17 03:24:23;;;;;;;3.85;1.60;;;;;;;;;;5057347;27;101211;-79
2023/03/17 03:26:49;;;;;;;4.03;1.60;;;;;;;;;;5039961;27;101591;-78
2023/03/17 03:29:16;;;;;;;4.78;1.88;;;;;;;;;;5076418;27;98414;-78
2023/03/17 03:31:42;;;;;;;5.03;1.60;;;;;;;;;;5057577;27;99042;-78
2023/03/17 03:34:09;;;;;;;3.40;1.70;;;;;;;;;;5048997;27;98798;-78
2023/03/17 03:36:35;;;;;;;4.95;1.75;;;;;;;;;;5053943;27;98877;-78
2023/03/17 03:39:02;;;;;;;4.30;1.73;;;;;;;;;;5068272;27;98460;-77
2023/03/17 03:41:28;;;;;;;3.15;1.50;;;;;;;;;;5061261;27;100661;-77
2023/03/17 03:43:55;;;;;;;3.28;1.45;;;;;;;;;;5039731;27;100495;-78
2023/03/17 03:46:22;;;;;;;3.95;1.80;;;;;;;;;;5057453;27;99885;-78
2023/03/17 03:48:48;;;;;;;3.85;1.70;;;;;;;;;;5075073;27;98846;-78
2023/03/17 03:51:15;;;;;;;3.65;1.63;;;;;;;;;;5069149;27;99512;-78
2023/03/17 03:53:41;;;;;;;4.55;1.65;;;;;;;;;;5040402;27;101843;-78
2023/03/17 03:56:07;;;;;;;4.57;1.80;;;;;;;;;;5076417;27;98545;-77
2023/03/17 03:58:34;;;;;;;3.80;1.67;;;;;;;;;;5023599;27;101226;-79
2023/03/17 04:01:04;;;;;;;5.25;1.80;;;;;;;;;;5057964;27;99068;-77
2023/03/17 04:03:31;;;;;;;2.20;1.30;;;;;;;;;;5078286;27;98582;-77
2023/03/17 04:05:58;;;;;;;2.92;1.55;;;;;;;;;;5073658;27;98083;-77
2023/03/17 04:08:24;;;;;;;3.83;1.63;;;;;;;;;;5057744;27;98493;-78
2023/03/17 04:10:51;;;;;;;3.03;1.58;;;;;;;;;;5039494;27;100687;-77
2023/03/17 04:13:17;;;;;;;4.45;2.00;;;;;;;;;;5078429;27;99915;-77
2023/03/17 04:15:43;;;;;;;3.67;1.50;;;;;;;;;;5078012;27;98953;-77
2023/03/17 04:18:10;;;;;;;5.07;1.80;;;;;;;;;;5057469;27;98684;-77
2023/03/17 04:20:37;;;;;;;4.55;1.50;;;;;;;;;;5074384;27;99157;-78
2023/03/17 04:23:03;;;;;;;3.50;1.60;;;;;;;;;;5058103;27;98518;-77
2023/03/17 04:25:30;;;;;;;5.07;1.85;;;;;;;;;;5078640;27;99434;-77
2023/03/17 04:27:56;;;;;;;4.38;1.50;;;;;;;;;;5076158;27;98487;-78
2023/03/17 04:30:23;;;;;;;4.57;1.60;;;;;;;;;;5056728;27;99880;-78
2023/03/17 04:32:49;;;;;;;3.90;1.60;;;;;;;;;;5042091;27;102148;-77
2023/03/17 04:35:18;;;;;;;6.05;1.70;;;;;;;;;;5057483;27;98418;-77
2023/03/17 04:37:44;;;;;;;4.85;1.60;;;;;;;;;;5070946;27;99150;-77
2023/03/17 04:40:12;;;;;;;4.43;1.70;;;;;;;;;;5075112;27;100610;-77
2023/03/17 04:42:38;;;;;;;4.80;1.60;;;;;;;;;;5075401;27;98231;-78
2023/03/17 04:45:06;;;;;;;4.57;1.77;;;;;;;;;;5057380;27;98422;-76
2023/03/17 04:47:33;;;;;;;5.00;1.80;;;;;;;;;;5078785;27;99608;-77
2023/03/17 04:50:00;;;;;;;6.28;1.92;;;;;;;;;;5040139;27;101444;-77
2023/03/17 04:52:27;;;;;;;3.00;1.40;;;;;;;;;;5075378;27;99923;-77
2023/03/17 04:54:53;;;;;;;3.65;1.90;;;;;;;;;;5075549;27;97522;-77
2023/03/17 04:57:21;;;;;;;6.22;1.60;;;;;;;;;;5061082;27;98122;-77
2023/03/17 04:59:47;;;;;;;6.05;1.92;;;;;;;;;;5078011;27;98684;-77
2023/03/17 05:02:13;;;;;;;4.72;1.52;;;;;;;;;;5078501;27;99106;-77
2023/03/17 05:04:40;;;;;;;4.53;1.48;;;;;;;;;;5059031;27;101911;-77
2023/03/17 05:07:07;;;;;;;4.70;2.00;;;;;;;;;;5078300;27;98824;-77
2023/03/17 05:09:33;;;;;;;5.90;1.83;;;;;;;;;;5082085;27;98379;-77
2023/03/17 05:12:00;;;;;;;5.20;1.58;;;;;;;;;;5059766;27;99207;-77
2023/03/17 05:14:26;;;;;;;5.18;1.80;;;;;;;;;;5067277;27;98606;-77
2023/03/17 05:16:53;;;;;;;4.03;1.80;;;;;;;;;;5078286;27;99375;-77
2023/03/17 05:19:19;;;;;;;4.03;1.50;;;;;;;;;;5078668;27;98142;-77
2023/03/17 05:21:46;;;;;;;4.05;1.50;;;;;;;;;;5059867;27;98568;-77
2023/03/17 05:24:12;;;;;;;3.08;1.60;;;;;;;;;;5078700;27;98509;-77
2023/03/17 05:26:39;;;;;;;4.57;1.60;;;;;;;;;;5058239;27;102191;-77
2023/03/17 05:29:06;;;;;;;3.85;1.60;;;;;;;;;;5063251;27;98594;-77
2023/03/17 05:31:32;;;;;;;4.18;1.40;;;;;;;;;;5077685;27;98557;-77
2023/03/17 05:33:59;;;;;;;5.28;1.75;;;;;;;;;;5060130;27;98238;-77
2023/03/17 05:36:25;;;;;;;3.85;1.70;;;;;;;;;;5060029;27;98466;-78
2023/03/17 05:38:51;;;;;;;3.90;1.58;;;;;;;;;;5076773;27;99051;-78
2023/03/17 05:41:18;;;;;;;5.95;1.80;;;;;;;;;;5078520;27;98149;-78
2023/03/17 05:43:45;;;;;;;6.65;1.75;;;;;;;;;;5079191;27;98852;-79
2023/03/17 05:46:12;;;;;;;3.05;1.48;;;;;;;;;;5077544;27;98745;-78
2023/03/17 05:48:39;;;;;;;4.32;1.60;;;;;;;;;;5059663;27;98299;-78
2023/03/17 05:51:05;;;;;;;3.10;1.67;;;;;;;;;;5079930;27;99132;-79
2023/03/17 05:53:32;;;;;;;5.65;1.70;;;;;;;;;;5078069;27;98278;-78
2023/03/17 05:55:58;;;;;;;6.47;1.73;;;;;;;;;;5059643;27;99048;-79
2023/03/17 05:58:24;;;;;;;5.90;1.88;;;;;;;;;;5077677;27;98844;-78
2023/03/17 06:00:51;;;;;;;3.97;1.40;;;;;;;;;;5076284;27;98085;-78
2023/03/17 06:03:17;;;;;;;3.90;1.60;;;;;;;;;;5041751;27;98444;-77
2023/03/17 06:05:44;;;;;;;3.92;1.60;;;;;;;;;;5076646;27;98839;-78
2023/03/17 06:08:11;;;;;;;5.82;1.35;;;;;;;;;;5073600;27;97557;-76
2023/03/17 06:10:38;;;;;;;3.97;1.60;;;;;;;;;;5073019;27;99853;-79
2023/03/17 06:13:05;;;;;;;5.00;1.60;;;;;;;;;;5082143;27;98763;-78
2023/03/17 06:15:32;;;;;;;5.65;1.65;;;;;;;;;;5062467;27;101940;-77
2023/03/17 06:17:59;;;;;;;3.63;1.50;;;;;;;;;;5057999;27;99996;-77
2023/03/17 06:20:26;;;;;;;2.83;1.50;;;;;;;;;;5058607;27;98486;-77
2023/03/17 06:22:52;;;;;;;4.47;1.70;;;;;;;;;;5075746;27;98765;-77
2023/03/17 06:25:30;;;;;;;4.40;1.73;;;;;;;;;;5076454;27;98751;-79
2023/03/17 06:27:57;;;;;;;3.50;1.58;;;;;;;;;;5077075;27;98644;-78
2023/03/17 06:30:23;;;;;;;4.80;1.63;;;;;;;;;;5062449;27;99746;-79
2023/03/17 06:32:50;;;;;;;3.40;1.60;;;;;;;;;;5060721;27;100669;-80
2023/03/17 06:35:16;;;;;;;4.90;1.55;;;;;;;;;;5080416;27;98586;-79
2023/03/17 06:37:43;;;;;;;4.82;1.55;;;;;;;;;;5058285;27;98784;-78
2023/03/17 06:40:10;;;;;;;4.15;1.70;;;;;;;;;;5076568;27;99211;-77
2023/03/17 06:42:36;;;;;;;5.68;1.52;;;;;;;;;;5076542;27;99230;-79
2023/03/17 06:45:03;;;;;;;3.28;1.50;;;;;;;;;;5058335;27;100399;-79
2023/03/17 06:47:29;;;;;;;4.45;1.70;;;;;;;;;;5058405;27;98219;-79
2023/03/17 06:49:55;;;;;;;3.60;1.90;;;;;;;;;;5076341;27;98528;-79
2023/03/17 06:52:22;;;;;;;4.57;1.60;;;;;;;;;;5054171;27;98790;-78
2023/03/17 06:54:48;;;;;;;6.32;1.70;;;;;;;;;;5055498;27;98945;-79
2023/03/17 06:57:15;;;;;;;4.88;1.80;;;;;;;;;;5059946;27;98991;-79
2023/03/17 06:59:42;;;;;;;3.97;1.80;;;;;;;;;;5055603;27;98240;-79
2023/03/17 07:02:10;;;;;;;4.68;1.58;;;;;;;;;;5056277;27;98710;-78
2023/03/17 07:04:37;;;;;;;3.67;1.60;;;;;;;;;;5054454;27;100098;-78
2023/03/17 07:07:04;;;;;;;4.93;1.85;;;;;;;;;;5054787;27;98200;-79
2023/03/17 07:09:34;;;;;;;7.13;1.80;;;;;;;;;;5055331;27;98527;-79
2023/03/17 07:12:03;;;;;;;6.28;1.88;;;;;;;;;;5056088;27;98682;-80
2023/03/17 07:14:34;;;;;;;6.00;1.70;;;;;;;;;;5056293;27;98577;-79
2023/03/17 07:17:04;;;;;;;4.60;1.83;;;;;;;;;;5057910;27;105641;-78
2023/03/17 07:19:31;;;;;;;3.67;1.73;;;;;;;;;;5054741;27;98508;-80
2023/03/17 07:21:58;;;;;;;7.00;2.00;;;;;;;;;;5055940;27;98894;-78
2023/03/17 07:24:24;;;;;;;4.30;1.60;;;;;;;;;;5055086;27;100239;-78
2023/03/17 07:26:51;;;;;;;7.88;2.08;;;;;;;;;;5053360;27;98203;-77
2023/03/17 07:46:55;;;;;;;5.68;1.83;;;;;;;;;;5024592;27;86188;-74
2023/03/17 07:49:21;;;;;;;6.20;2.10;;;;;;;;;;5048101;27;87696;-76
2023/03/17 07:52:09;;;;;;;4.65;2.05;;;;;;;;;;5046199;27;87139;-76
2023/03/17 07:54:36;;;;;;;6.95;2.13;;;;;;;;;;5058619;27;87177;-75
2023/03/17 07:57:03;;;;;;;5.65;1.73;;;;;;;;;;5050853;27;88491;-76
2023/03/17 07:59:30;;;;;;;8.93;2.58;;;;;;;;;;5058939;27;89317;-76
2023/03/17 08:01:58;;;;;;;6.50;2.28;;;;;;;;;;5047609;27;87089;-75
2023/03/17 08:04:26;;;;;;;4.43;1.83;;;;;;;;;;5053263;27;89318;-76
2023/03/17 08:06:53;;;;;;;6.90;1.90;;;;;;;;;;5045529;27;87528;-77
2023/03/17 08:09:21;;;;;;;4.15;1.40;;;;;;;;;;5037310;28;86884;-77
2023/03/17 08:11:47;;;;;;;3.97;1.77;;;;;;;;;;5039921;27;86553;-76
2023/03/17 08:14:14;;;;;;;4.65;1.52;;;;;;;;;;5043716;27;86499;-78
2023/03/17 08:16:40;;;;;;;3.78;1.70;;;;;;;;;;5043627;27;87005;-78
2023/03/17 08:19:07;;;;;;;4.97;1.90;;;;;;;;;;5054951;27;87028;-77
2023/03/17 08:21:33;;;;;;;3.95;1.60;;;;;;;;;;5042159;27;87240;-78
2023/03/17 08:24:00;;;;;;;5.30;1.63;;;;;;;;;;5035265;27;90439;-78
2023/03/17 08:26:27;;;;;;;4.85;1.60;;;;;;;;;;5055503;27;86553;-78
2023/03/17 08:28:53;;;;;;;3.35;1.70;;;;;;;;;;5056388;27;86765;-81
2023/03/17 08:31:21;;;;;;;7.78;1.50;;;;;;;;;;5040019;27;86784;-75
2023/03/17 08:33:49;;;;;;;3.85;1.70;;;;;;;;;;5059088;27;87503;-75
2023/03/17 08:36:16;;;;;;;5.15;1.45;;;;;;;;;;5043048;27;87028;-73
2023/03/17 08:38:42;;;;;;;;;;;;;;;;;;5048205;27;87977;-75
2023/03/17 08:41:11;;;;;;;5.07;1.45;;;;;;;;;;5059688;27;87205;-73
2023/03/17 08:43:38;;;;;;;6.30;1.73;;;;;;;;;;5044922;27;86757;-76
2023/03/17 08:46:06;;;;;;;4.03;1.40;;;;;;;;;;5046071;27;86990;-75
2023/03/17 08:48:35;;;;;;;2.65;1.40;;;;;;;;;;5052762;27;89108;-76
2023/03/17 08:51:03;;;;;;;3.13;1.30;;;;;;;;;;5053219;27;92212;-76
2023/03/17 08:53:30;;;;;;;2.83;1.60;;;;;;;;;;5050082;27;86842;-76
2023/03/17 08:55:56;;;;;;;3.35;1.50;;;;;;;;;;5057046;27;89095;-76
2023/03/17 08:58:23;;;;;;;3.83;1.50;;;;;;;;;;5036818;27;87465;-76
2023/03/17 09:00:51;;;;;;;4.38;1.50;;;;;;;;;;5045544;27;87275;-75
2023/03/17 09:03:17;;;;;;;5.47;1.63;;;;;;;;;;5040886;28;87042;-76
2023/03/17 09:05:44;;;;;;;4.00;1.30;;;;;;;;;;5035147;28;86497;-76
2023/03/17 09:08:11;;;;;;;2.67;1.20;;;;;;;;;;5039353;28;86805;-76
2023/03/17 09:10:38;;;;;;;3.95;1.50;;;;;;;;;;5043851;27;87038;-76
2023/03/17 09:13:05;;;;;;;3.15;1.50;;;;;;;;;;5042247;28;86480;-77
2023/03/17 09:15:32;;;;;;;5.35;1.58;;;;;;;;;;5043298;28;89061;-75
2023/03/17 09:17:59;;;;;;;2.92;1.40;;;;;;;;;;5043392;27;88286;-75
2023/03/17 09:20:26;;;;;;;4.10;1.35;;;;;;;;;;5042378;27;86995;-75
2023/03/17 09:22:53;;;;;;;3.63;1.35;;;;;;;;;;5033402;27;87179;-75
2023/03/17 09:25:19;;;;;;;6.00;1.63;;;;;;;;;;5041297;27;86679;-76
2023/03/17 09:27:46;;;;;;;5.05;1.60;;;;;;;;;;5026275;28;89074;-76
2023/03/17 09:30:12;;;;;;;2.90;1.33;;;;;;;;;;5039790;28;87049;-75
2023/03/17 09:32:39;;;;;;;2.63;1.33;;;;;;;;;;5038115;27;87732;-77
2023/03/17 09:35:05;;;;;;;4.25;1.50;;;;;;;;;;5047020;27;86773;-77
2023/03/17 09:37:33;;;;;;;2.95;1.30;;;;;;;;;;5038786;28;89379;-76
2023/03/17 09:39:59;;;;;;;3.83;1.50;;;;;;;;;;5028934;27;86906;-77
2023/03/17 09:42:26;;;;;;;3.85;1.50;;;;;;;;;;5037301;27;88012;-76
2023/03/17 09:45:02;;;;;;;1.98;1.20;;;;;;;;;;5042164;27;86777;-76
2023/03/17 09:47:28;;;;;;;2.10;1.20;;;;;;;;;;5032417;28;89158;-77
2023/03/17 09:49:57;;;;;;;4.45;1.60;;;;;;;;;;5041598;28;88783;-76
2023/03/17 09:52:26;;;;;;;2.63;1.30;;;;;;;;;;5040776;27;87310;-76
2023/03/17 09:54:53;;;;;;;3.95;1.40;;;;;;;;;;5028575;27;88079;-76
2023/03/17 09:57:31;;;;;;;3.15;1.42;;;;;;;;;;5046155;27;87708;-76
2023/03/17 10:00:05;;;;;;;2.95;1.25;;;;;;;;;;5044378;27;86318;-77
2023/03/17 10:02:33;;;;;;;3.20;1.50;;;;;;;;;;5042025;27;88925;-76
2023/03/17 10:05:09;;;;;;;3.35;1.38;;;;;;;;;;5034048;28;92259;-76
2023/03/17 10:07:45;;;;;;;3.88;1.50;;;;;;;;;;5033046;27;86916;-77
2023/03/17 10:10:14;;;;;;;3.17;1.27;;;;;;;;;;5043330;27;86888;-76
2023/03/17 10:12:59;;;;;;;3.60;1.50;;;;;;;;;;5035550;27;86570;-77
2023/03/17 10:15:49;;;;;;;2.47;1.30;;;;;;;;;;5043306;28;87218;-77
2023/03/17 10:18:17;;;;;;;4.90;1.60;;;;;;;;;;5036465;28;86881;-76
2023/03/17 10:20:52;;;;;;;4.10;1.63;;;;;;;;;;5043511;27;87534;-76
2023/03/17 10:23:20;;;;;;;2.60;1.48;;;;;;;;;;5032250;28;86868;-75
2023/03/17 10:25:47;;;;;;;4.57;1.40;;;;;;;;;;5034657;28;86395;-76
2023/03/17 10:28:19;;;;;;;4.05;1.50;;;;;;;;;;5033872;28;86699;-76
2023/03/17 10:30:45;;;;;;;3.13;1.58;;;;;;;;;;5035207;28;89785;-77
2023/03/17 10:33:12;;;;;;;4.00;1.65;;;;;;;;;;5032324;27;86362;-75
2023/03/17 10:35:39;;;;;;;2.97;1.60;;;;;;;;;;5038408;27;86743;-76
2023/03/17 10:38:16;;;;;;;3.58;1.60;;;;;;;;;;5026814;28;86927;-76
2023/03/17 10:40:46;;;;;;;3.08;1.70;;;;;;;;;;5036938;27;86499;-76
2023/03/17 10:43:17;;;;;;;4.63;1.98;;;;;;;;;;5039172;28;87489;-75
2023/03/17 10:45:57;;;;;;;4.70;1.90;;;;;;;;;;5040810;28;87555;-76
2023/03/17 10:48:24;;;;;;;4.70;1.90;;;;;;;;;;5030866;27;87290;-75
2023/03/17 10:50:50;;;;;;;5.53;1.58;;;;;;;;;;5027314;27;89823;-77
2023/03/17 10:53:29;;;;;;;5.38;1.70;;;;;;;;;;5023539;28;87006;-76
2023/03/17 10:56:05;;;;;;;4.82;1.90;;;;;;;;;;5025788;28;86380;-75
2023/03/17 10:58:42;;;;;;;3.85;1.80;;;;;;;;;;5031604;28;87576;-76
2023/03/17 11:01:18;;;;;;;3.63;1.58;;;;;;;;;;5038166;27;90523;-76
2023/03/17 11:03:46;;;;;;;5.00;1.90;;;;;;;;;;5033858;28;89178;-76
2023/03/17 11:06:14;;;;;;;3.10;1.55;;;;;;;;;;5017251;28;92306;-76
2023/03/17 11:08:45;;;;;;;4.10;1.73;;;;;;;;;;5036218;27;87092;-75
2023/03/17 11:11:23;;;;;;;3.72;1.70;;;;;;;;;;5042538;27;88250;-75
2023/03/17 11:13:49;;;;;;;4.55;1.55;;;;;;;;;;5032888;28;86574;-75
2023/03/17 11:16:20;;;;;;;4.78;1.67;;;;;;;;;;5040972;27;87331;-75
2023/03/17 11:18:47;;;;;;;4.95;1.90;;;;;;;;;;5023324;28;86928;-76
2023/03/17 11:21:17;;;;;;;5.18;1.95;;;;;;;;;;5040979;27;86861;-75
2023/03/17 11:23:47;;;;;;;3.80;1.80;;;;;;;;;;5039087;27;86576;-75
2023/03/17 11:26:17;;;;;;;6.05;1.65;;;;;;;;;;5045353;27;87856;-74
2023/03/17 11:28:50;;;;;;;4.45;1.90;;;;;;;;;;5042511;27;86609;-75
2023/03/17 11:31:22;;;;;;;3.63;1.70;;;;;;;;;;5036483;27;86763;-76
2023/03/17 11:33:49;;;;;;;5.30;2.15;;;;;;;;;;5036280;27;86936;-76
2023/03/17 11:36:24;;;;;;;4.28;1.88;;;;;;;;;;5022786;28;87238;-76
2023/03/17 11:38:51;;;;;;;4.80;1.70;;;;;;;;;;5032945;27;87864;-76
2023/03/17 11:41:26;;;;;;;5.25;1.83;;;;;;;;;;5036339;28;88814;-75
2023/03/17 11:44:15;;;;;;;3.80;1.88;;;;;;;;;;5036671;27;86847;-75
2023/03/17 11:46:59;;;;;;;4.38;1.90;;;;;;;;;;5033945;27;88114;-75
2023/03/17 11:49:35;;;;;;;4.68;1.80;;;;;;;;;;5045696;27;86546;-76
2023/03/17 11:52:02;;;;;;;3.28;1.52;;;;;;;;;;5033720;27;87485;-74
2023/03/17 11:54:34;;;;;;;4.30;1.90;;;;;;;;;;5025416;28;87279;-75
2023/03/17 11:57:07;;;;;;;3.85;1.65;;;;;;;;;;5038852;27;93914;-75
2023/03/17 11:59:36;;;;;;;4.22;1.92;;;;;;;;;;5040904;27;86805;-75
2023/03/17 12:02:21;;;;;;;4.88;1.98;;;;;;;;;;5027350;28;87947;-75
2023/03/17 12:05:06;;;;;;;5.18;2.15;;;;;;;;;;5036652;27;88650;-75
2023/03/17 12:07:40;;;;;;;3.83;1.75;;;;;;;;;;5029615;27;88449;-75
2023/03/17 12:10:27;;;;;;;4.10;1.80;;;;;;;;;;5040999;28;89119;-76
2023/03/17 12:12:57;;;;;;;3.28;1.60;;;;;;;;;;5024228;28;88071;-75
2023/03/17 12:15:33;;;;;;;3.47;1.65;;;;;;;;;;5024846;27;88454;-75
2023/03/17 12:18:03;;;;;;;4.22;1.90;;;;;;;;;;5039576;27;88264;-75
2023/03/17 12:20:41;;;;;;;3.53;1.60;;;;;;;;;;5040299;28;87818;-75
2023/03/17 12:23:28;;;;;;;3.45;1.70;;;;;;;;;;5039204;28;92026;-75
2023/03/17 12:26:01;;;;;;;3.63;1.70;;;;;;;;;;5041825;27;87921;-75
2023/03/17 12:28:31;;;;;;;3.70;1.70;;;;;;;;;;5014866;28;89695;-75
2023/03/17 12:31:11;;;;;;;3.65;1.60;;;;;;;;;;5036013;27;92681;-75
2023/03/17 12:33:38;;;;;;;3.78;1.60;;;;;;;;;;5039709;28;89218;-75
2023/03/17 12:36:06;;;;;;;4.43;1.85;;;;;;;;;;5044932;27;88637;-75
2023/03/17 12:38:36;;;;;;;4.82;1.73;;;;;;;;;;5027176;27;88273;-77
2023/03/17 12:41:08;;;;;;;5.05;1.90;;;;;;;;;;5044429;27;87920;-75
2023/03/17 12:43:54;;;;;;;5.20;1.70;;;;;;;;;;5028611;28;90398;-75
2023/03/17 12:46:30;;;;;;;3.88;1.55;;;;;;;;;;5032128;28;88298;-76
2023/03/17 12:49:14;;;;;;;4.50;1.50;;;;;;;;;;5042454;28;88061;-75
2023/03/17 12:51:51;;;;;;;3.35;1.58;;;;;;;;;;5032974;28;88961;-74
2023/03/17 12:54:20;;;;;;;3.47;1.75;;;;;;;;;;5041554;28;88211;-75
2023/03/17 12:56:47;;;;;;;3.65;1.65;;;;;;;;;;5038056;27;90029;-76
2023/03/17 12:59:16;;;;;;;3.53;1.60;;;;;;;;;;5036525;27;89116;-76
2023/03/17 13:01:44;;;;;;;4.40;1.73;;;;;;;;;;5042902;28;93104;-74
2023/03/17 13:04:11;;;;;;;3.70;1.67;;;;;;;;;;5042725;27;87604;-74
2023/03/17 13:06:45;;;;;;;3.83;1.83;;;;;;;;;;5039641;27;88566;-75
2023/03/17 13:09:35;;;;;;;4.97;2.10;;;;;;;;;;5040414;28;88961;-75
2023/03/17 13:12:02;;;;;;;4.85;1.60;;;;;;;;;;5011931;28;88039;-74
2023/03/17 13:14:42;;;;;;;4.68;2.10;;;;;;;;;;5029742;27;88621;-74
2023/03/17 13:17:15;;;;;;;5.43;2.10;;;;;;;;;;5043363;28;90858;-75
2023/03/17 13:20:00;;;;;;;3.78;1.60;;;;;;;;;;5047193;27;88334;-74
2023/03/17 13:22:46;;;;;;;4.75;2.10;;;;;;;;;;5044548;27;87879;-75
2023/03/17 13:25:12;;;;;;;5.95;1.90;;;;;;;;;;5036913;27;92218;-75
2023/03/17 13:27:43;;;;;;;4.60;2.15;;;;;;;;;;5034821;27;88319;-76
2023/03/17 13:30:24;;;;;;;4.00;1.88;;;;;;;;;;5030520;28;87669;-75
2023/03/17 13:33:09;;;;;;;4.47;2.10;;;;;;;;;;5034979;27;88235;-75
2023/03/17 13:35:41;;;;;;;3.65;1.77;;;;;;;;;;5043587;27;88233;-74
2023/03/17 13:38:32;;;;;;;4.10;1.70;;;;;;;;;;5029646;28;89796;-77
2023/03/17 13:41:10;;;;;;;4.38;1.50;;;;;;;;;;5041529;27;92505;-75
2023/03/17 13:43:43;;;;;;;4.32;2.10;;;;;;;;;;5044116;27;90740;-75
2023/03/17 13:46:29;;;;;;;4.53;1.88;;;;;;;;;;5018339;28;87770;-75
2023/03/17 13:48:57;;;;;;;3.28;1.73;;;;;;;;;;5041238;27;90680;-75
2023/03/17 13:51:24;;;;;;;3.67;1.85;;;;;;;;;;5042949;27;88366;-75
2023/03/17 13:53:55;;;;;;;3.53;1.58;;;;;;;;;;5031497;28;88660;-75
2023/03/17 13:56:40;;;;;;;3.03;1.40;;;;;;;;;;5042267;28;89110;-75
2023/03/17 13:59:11;;;;;;;2.90;1.35;;;;;;;;;;5042937;27;91382;-75
2023/03/17 14:01:41;;;;;;;4.10;1.35;;;;;;;;;;5043809;27;88632;-74
2023/03/17 14:04:19;;;;;;;3.88;1.48;;;;;;;;;;5025318;28;94131;-75
2023/03/17 14:06:46;;;;;;;4.32;1.77;;;;;;;;;;5036548;27;87669;-75
2023/03/17 14:09:28;;;;;;;3.65;1.60;;;;;;;;;;5038625;27;87991;-74
2023/03/17 14:11:58;;;;;;;3.83;1.60;;;;;;;;;;5043620;27;87997;-74
2023/03/17 14:14:43;;;;;;;3.47;1.60;;;;;;;;;;5028161;27;87930;-75
2023/03/17 14:17:12;;;;;;;3.08;1.58;;;;;;;;;;5042462;27;92647;-75
2023/03/17 14:19:40;;;;;;;3.13;1.50;;;;;;;;;;5043362;27;87832;-74
2023/03/17 14:22:21;;;;;;;4.25;1.77;;;;;;;;;;5034812;27;88411;-75
2023/03/17 14:24:49;;;;;;;4.28;1.70;;;;;;;;;;5025132;27;88302;-76
2023/03/17 14:27:16;;;;;;;4.88;1.80;;;;;;;;;;5033695;28;88094;-75
2023/03/17 14:29:42;;;;;;;3.42;1.50;;;;;;;;;;5030467;28;91152;-76
2023/03/17 14:32:13;;;;;;;4.65;1.67;;;;;;;;;;5030848;28;89619;-75
2023/03/17 14:34:51;;;;;;;4.30;1.75;;;;;;;;;;5037892;27;87898;-75
2023/03/17 14:37:18;;;;;;;3.25;1.90;;;;;;;;;;5034025;28;88277;-74
2023/03/17 14:39:46;;;;;;;3.33;1.60;;;;;;;;;;5035479;28;88264;-74
2023/03/17 14:42:13;;;;;;;3.08;1.67;;;;;;;;;;5036718;27;93482;-76
2023/03/17 14:44:40;;;;;;;3.13;1.65;;;;;;;;;;5029953;27;89679;-75
2023/03/17 14:47:18;;;;;;;3.17;1.60;;;;;;;;;;5040271;27;87671;-74
2023/03/17 14:49:45;;;;;;;3.88;1.63;;;;;;;;;;5044730;27;88552;-75
2023/03/17 14:52:16;;;;;;;3.22;1.50;;;;;;;;;;5041131;28;87731;-74
2023/03/17 14:54:43;;;;;;;3.20;1.60;;;;;;;;;;5039347;27;90352;-76
2023/03/17 14:57:14;;;;;;;3.33;1.45;;;;;;;;;;5043124;27;87748;-75
2023/03/17 14:59:41;;;;;;;3.10;1.45;;;;;;;;;;5024612;28;89470;-75
2023/03/17 15:02:21;;;;;;;4.18;1.60;;;;;;;;;;5042789;27;87886;-76
2023/03/17 15:05:06;;;;;;;3.17;1.60;;;;;;;;;;5041522;27;93952;-77
2023/03/17 15:07:38;;;;;;;3.13;1.50;;;;;;;;;;5038273;28;89623;-75
2023/03/17 15:10:12;;;;;;;3.80;1.75;;;;;;;;;;5040825;28;90929;-75
2023/03/17 15:12:39;;;;;;;4.07;1.88;;;;;;;;;;5039864;27;88724;-76